createdAt,value
2022-11-24T00:00:51.858Z,3.76
2022-11-24T00:03:58.034Z,3.75
2022-11-24T00:07:00.757Z,3.77
2022-11-24T00:10:04.353Z,3.77
2022-11-24T00:13:06.930Z,3.78
2022-11-24T00:16:18.697Z,3.78
2022-11-24T00:19:21.591Z,3.77
2022-11-24T00:22:24.749Z,3.77
2022-11-24T00:25:27.325Z,3.76
2022-11-24T00:28:30.343Z,3.78
2022-11-24T00:31:35.355Z,3.79
2022-11-24T00:34:38.649Z,3.81
2022-11-24T00:37:41.271Z,3.82
2022-11-24T00:40:45.570Z,3.83
2022-11-24T00:43:48.446Z,3.83
2022-11-24T00:46:51.402Z,3.83
2022-11-24T00:49:54.179Z,3.84
2022-11-24T00:52:56.969Z,3.84
2022-11-24T00:55:59.552Z,3.85
2022-11-24T00:59:02.454Z,3.85
2022-11-24T01:02:05.070Z,3.83
2022-11-24T01:05:08.630Z,3.84
2022-11-24T01:08:11.947Z,3.82
2022-11-24T01:11:23.547Z,3.79
2022-11-24T01:14:26.411Z,3.80
2022-11-24T01:17:29.472Z,3.80
2022-11-24T01:20:32.596Z,3.80
2022-11-24T01:23:35.849Z,3.81
2022-11-24T01:26:38.917Z,3.79
2022-11-24T01:29:41.761Z,3.79
2022-11-24T01:32:44.354Z,3.79
2022-11-24T01:35:47.222Z,3.79
2022-11-24T01:38:50.332Z,3.78
2022-11-24T01:41:53.529Z,3.80
2022-11-24T01:45:31.688Z,3.80
2022-11-24T01:48:40.704Z,3.80
2022-11-24T01:51:47.623Z,3.81
2022-11-24T01:54:55.120Z,3.79
2022-11-24T01:58:07.282Z,3.79
2022-11-24T02:01:10.243Z,3.81
2022-11-24T02:04:15.801Z,3.81
2022-11-24T02:07:18.990Z,3.82
2022-11-24T02:10:22.005Z,3.81
2022-11-24T02:13:25.133Z,3.82
2022-11-24T02:16:27.713Z,3.72
2022-11-24T02:19:39.619Z,3.78
2022-11-24T02:23:09.773Z,3.78
2022-11-24T02:26:16.070Z,3.81
2022-11-24T02:29:20.509Z,3.82
2022-11-24T02:32:23.421Z,3.84
2022-11-24T02:35:27.338Z,3.82
2022-11-24T02:38:31.990Z,3.84
2022-11-24T02:41:34.709Z,3.78
2022-11-24T02:44:41.076Z,3.84
2022-11-24T02:47:43.697Z,3.84
2022-11-24T02:50:46.649Z,3.82
2022-11-24T02:53:49.441Z,3.78
2022-11-24T02:56:52.540Z,3.79
2022-11-24T02:59:55.053Z,3.78
2022-11-24T03:02:58.242Z,3.82
2022-11-24T03:06:01.193Z,3.83
2022-11-24T03:09:04.341Z,3.83
2022-11-24T03:12:07.129Z,3.86
2022-11-24T03:15:10.682Z,3.85
2022-11-24T03:18:13.234Z,3.85
2022-11-24T03:21:16.294Z,3.84
2022-11-24T03:24:18.849Z,3.82
2022-11-24T03:27:21.759Z,3.82
2022-11-24T03:30:24.279Z,3.83
2022-11-24T03:33:27.135Z,3.84
2022-11-24T03:36:29.680Z,3.79
2022-11-24T03:39:32.624Z,3.80
2022-11-24T03:42:35.248Z,3.79
2022-11-24T03:45:46.153Z,3.81
2022-11-24T03:48:49.290Z,3.82
2022-11-24T03:51:52.033Z,3.77
2022-11-24T03:54:54.615Z,3.81
2022-11-24T03:57:57.544Z,3.82
2022-11-24T04:01:00.095Z,3.81
2022-11-24T04:04:03.281Z,3.80
2022-11-24T04:07:05.847Z,3.81
2022-11-24T04:10:09.084Z,3.80
2022-11-24T04:13:14.427Z,3.75
2022-11-24T04:16:17.393Z,3.77
2022-11-24T04:19:19.973Z,3.78
2022-11-24T04:22:23.101Z,3.78
2022-11-24T04:25:25.631Z,3.79
2022-11-24T04:28:28.939Z,3.78
2022-11-24T04:31:31.858Z,3.76
2022-11-24T04:34:35.847Z,3.75
2022-11-24T04:37:38.705Z,3.69
2022-11-24T04:40:41.612Z,3.70
2022-11-24T04:43:44.404Z,3.69
2022-11-24T04:46:47.461Z,3.69
2022-11-24T04:49:50.520Z,3.68
2022-11-24T04:52:53.358Z,3.59
2022-11-24T04:55:55.876Z,3.64
2022-11-24T04:59:01.620Z,3.62
2022-11-24T05:02:09.165Z,3.55
2022-11-24T05:05:12.109Z,3.56
2022-11-24T05:08:14.705Z,3.55
2022-11-24T05:11:18.116Z,3.49
2022-11-24T05:14:20.656Z,3.45
2022-11-24T05:17:23.542Z,3.46
2022-11-24T05:20:26.314Z,3.44
2022-11-24T05:23:29.308Z,3.38
2022-11-24T05:26:31.793Z,3.43
2022-11-24T05:29:34.645Z,3.39
2022-11-24T05:32:37.224Z,3.37
2022-11-24T05:35:40.470Z,3.32
2022-11-24T05:38:43.211Z,3.40
2022-11-24T05:41:46.404Z,3.41
2022-11-24T05:44:48.936Z,3.38
2022-11-24T05:47:51.788Z,3.34
2022-11-24T05:50:55.809Z,3.33
2022-11-24T05:53:58.903Z,3.33
2022-11-24T05:57:01.407Z,3.32
2022-11-24T06:00:06.937Z,3.34
2022-11-24T06:03:14.783Z,3.25
2022-11-24T06:06:17.755Z,3.33
2022-11-24T06:09:20.418Z,3.75
2022-11-24T06:12:23.342Z,3.59
2022-11-24T06:15:25.979Z,3.48
2022-11-24T06:18:28.714Z,3.40
2022-11-24T06:21:31.900Z,3.63
2022-11-24T06:24:35.000Z,3.99
2022-11-24T06:27:37.787Z,3.76
2022-11-24T06:30:40.783Z,3.67
2022-11-24T06:33:43.444Z,3.59
2022-11-24T06:36:47.035Z,3.54
2022-11-24T06:39:49.633Z,3.35
2022-11-24T06:42:52.722Z,3.38
2022-11-24T06:45:55.978Z,3.46
2022-11-24T06:49:00.020Z,3.44
2022-11-24T06:52:02.747Z,3.46
2022-11-24T06:55:06.264Z,3.43
2022-11-24T06:58:09.077Z,3.38
2022-11-24T07:01:16.978Z,3.38
2022-11-24T07:04:20.132Z,3.37
2022-11-24T07:07:23.098Z,3.32
2022-11-24T07:10:25.971Z,3.40
2022-11-24T07:13:28.987Z,3.38
2022-11-24T07:16:32.092Z,3.37
2022-11-24T07:19:35.009Z,3.37
2022-11-24T07:22:37.651Z,3.37
2022-11-24T07:25:40.782Z,3.41
2022-11-24T07:28:43.403Z,3.42
2022-11-24T07:31:46.425Z,3.43
2022-11-24T07:34:49.021Z,3.35
2022-11-24T07:37:57.478Z,3.45
2022-11-24T07:41:04.876Z,3.46
2022-11-24T07:44:07.825Z,3.47
2022-11-24T07:47:10.475Z,3.47
2022-11-24T07:50:13.703Z,3.48
2022-11-24T07:53:16.747Z,3.49
2022-11-24T07:56:19.709Z,3.48
2022-11-24T07:59:22.305Z,3.49
2022-11-24T08:02:25.485Z,3.54
2022-11-24T08:05:28.379Z,3.60
2022-11-24T08:08:33.437Z,3.57
2022-11-24T08:11:36.808Z,3.63
2022-11-24T08:14:39.401Z,3.77
2022-11-24T08:17:42.205Z,3.78
2022-11-24T08:20:44.794Z,3.66
2022-11-24T08:23:47.741Z,3.88
2022-11-24T08:26:50.260Z,3.92
2022-11-24T08:29:53.369Z,3.99
2022-11-24T08:32:56.035Z,4.00
2022-11-24T08:36:10.046Z,4.04
2022-11-24T08:39:12.796Z,4.05
2022-11-24T08:42:16.093Z,4.10
2022-11-24T08:45:21.393Z,4.22
2022-11-24T08:48:25.478Z,4.30
2022-11-24T08:51:29.047Z,4.32
2022-11-24T08:54:32.798Z,4.40
2022-11-24T08:57:35.773Z,4.47
2022-11-24T09:00:40.809Z,4.53
2022-11-24T09:03:49.963Z,4.56
2022-11-24T09:06:53.056Z,4.58
2022-11-24T09:09:55.714Z,4.75
2022-11-24T09:12:58.599Z,4.85
2022-11-24T09:16:06.476Z,4.93
2022-11-24T09:19:10.205Z,4.99
2022-11-24T09:22:12.926Z,4.91
2022-11-24T09:25:15.887Z,5.02
2022-11-24T09:28:18.434Z,5.00
2022-11-24T09:31:24.727Z,4.82
2022-11-24T09:34:27.705Z,4.81
2022-11-24T09:37:33.002Z,4.64
2022-11-24T09:40:35.801Z,4.64
2022-11-24T09:43:40.850Z,4.69
2022-11-24T09:47:02.332Z,4.67
2022-11-24T09:50:14.111Z,4.70
2022-11-24T09:53:32.722Z,4.69
2022-11-24T09:56:38.756Z,4.60
2022-11-24T09:59:42.383Z,4.60
2022-11-24T10:02:48.613Z,4.56
2022-11-24T10:05:52.502Z,4.60
2022-11-24T10:09:32.342Z,4.58
2022-11-24T10:12:53.721Z,4.64
2022-11-24T10:16:41.184Z,4.50
2022-11-24T10:20:14.437Z,4.54
2022-11-24T10:23:42.010Z,4.63
2022-11-24T10:26:52.429Z,4.70
2022-11-24T10:29:55.564Z,4.70
2022-11-24T10:33:01.234Z,4.77
2022-11-24T10:36:08.040Z,4.90
2022-11-24T10:39:20.917Z,4.92
2022-11-24T10:42:33.670Z,4.91
2022-11-24T10:45:37.928Z,4.84
2022-11-24T10:48:57.657Z,4.91
2022-11-24T10:52:12.971Z,4.94
2022-11-24T10:55:15.589Z,4.98
2022-11-24T10:58:31.673Z,5.01
2022-11-24T11:01:38.596Z,4.94
2022-11-24T11:04:41.453Z,4.85
2022-11-24T11:07:44.133Z,4.92
2022-11-24T11:10:49.440Z,4.91
2022-11-24T11:14:06.038Z,4.85
2022-11-24T11:17:33.414Z,4.87
2022-11-24T11:20:36.780Z,4.82
2022-11-24T11:23:40.418Z,4.91
2022-11-24T11:26:43.447Z,4.91
2022-11-24T11:36:56.297Z,4.87
2022-11-24T11:39:59.072Z,5.35
2022-11-24T11:43:26.049Z,5.11
2022-11-24T11:46:30.989Z,5.08
2022-11-24T11:49:35.501Z,5.01
2022-11-24T11:52:44.375Z,5.03
2022-11-24T11:56:03.638Z,5.06
2022-11-24T11:59:26.766Z,5.11
2022-11-24T12:02:29.768Z,5.16
2022-11-24T12:05:51.225Z,5.15
2022-11-24T12:09:20.437Z,5.23
2022-11-24T12:12:29.631Z,5.27
2022-11-24T12:15:46.292Z,5.37
2022-11-24T12:18:59.617Z,5.41
2022-11-24T12:22:02.183Z,5.46
2022-11-24T12:25:23.268Z,5.54
2022-11-24T12:28:50.080Z,5.56
2022-11-24T12:32:31.274Z,5.53
2022-11-24T12:35:43.785Z,5.50
2022-11-24T12:39:06.913Z,5.54
2022-11-24T12:42:31.161Z,5.59
2022-11-24T12:45:46.599Z,5.63
2022-11-24T12:49:15.042Z,5.66
2022-11-24T12:52:25.455Z,5.67
2022-11-24T12:55:29.325Z,5.68
2022-11-24T12:58:51.929Z,5.80
2022-11-24T13:02:15.027Z,5.95
2022-11-24T13:05:37.757Z,6.12
2022-11-24T13:08:41.115Z,6.21
2022-11-24T13:11:51.928Z,6.42
2022-11-24T13:14:54.573Z,6.49
2022-11-24T13:18:08.567Z,6.57
2022-11-24T13:21:51.033Z,6.58
2022-11-24T13:25:21.717Z,6.56
2022-11-24T13:29:06.039Z,6.59
2022-11-24T13:32:16.804Z,6.59
2022-11-24T13:35:19.634Z,6.43
2022-11-24T13:38:43.967Z,6.27
2022-11-24T13:41:49.271Z,6.08
2022-11-24T13:44:54.147Z,5.92
2022-11-24T13:47:56.693Z,5.73
2022-11-24T13:51:01.228Z,5.66
2022-11-24T13:54:04.226Z,5.64
2022-11-24T13:57:35.550Z,5.60
2022-11-24T14:01:05.215Z,5.56
2022-11-24T14:04:30.970Z,5.49
2022-11-24T14:07:36.528Z,5.45
2022-11-24T14:10:41.490Z,5.40
2022-11-24T14:13:45.058Z,5.38
2022-11-24T14:16:47.925Z,5.33
2022-11-24T14:19:57.844Z,5.29
2022-11-24T14:23:00.801Z,5.26
2022-11-24T14:26:03.354Z,5.23
2022-11-24T14:29:11.234Z,5.20
2022-11-24T14:32:16.888Z,5.14
2022-11-24T14:35:22.672Z,5.10
2022-11-24T14:38:25.785Z,5.04
2022-11-24T14:41:28.775Z,4.97
2022-11-24T14:44:34.520Z,4.95
2022-11-24T14:47:45.038Z,4.88
2022-11-24T14:50:47.782Z,4.83
2022-11-24T14:53:54.324Z,4.79
2022-11-24T14:57:04.185Z,4.78
2022-11-24T15:00:17.236Z,4.73
2022-11-24T15:03:19.867Z,4.70
2022-11-24T15:06:22.632Z,4.64
2022-11-24T15:09:30.633Z,4.60
2022-11-24T15:12:41.288Z,5.22
2022-11-24T15:15:49.439Z,4.80
2022-11-24T15:18:58.528Z,4.69
2022-11-24T15:22:01.498Z,4.62
2022-11-24T15:25:31.434Z,4.55
2022-11-24T15:28:33.942Z,4.52
2022-11-24T15:31:37.119Z,4.47
2022-11-24T15:34:39.882Z,4.47
2022-11-24T15:37:42.692Z,4.45
2022-11-24T15:40:47.515Z,4.43
2022-11-24T15:43:50.392Z,4.42
2022-11-24T15:46:55.300Z,4.41
2022-11-24T15:49:58.308Z,4.41
2022-11-24T15:53:01.022Z,4.40
2022-11-24T15:56:06.863Z,4.36
2022-11-24T15:59:19.949Z,4.37
2022-11-24T16:02:24.028Z,4.37
2022-11-24T16:05:26.894Z,4.37
2022-11-24T16:08:29.576Z,4.35
2022-11-24T16:11:32.413Z,4.35
2022-11-24T16:14:35.868Z,4.34
2022-11-24T16:17:39.143Z,4.30
2022-11-24T16:20:41.940Z,4.30
2022-11-24T16:23:45.644Z,4.27
2022-11-24T16:26:48.277Z,4.24
2022-11-24T16:29:51.819Z,4.20
2022-11-24T16:32:54.990Z,4.16
2022-11-24T16:35:57.804Z,4.13
2022-11-24T16:39:00.552Z,4.10
2022-11-24T16:42:04.368Z,4.04
2022-11-24T16:45:07.541Z,4.02
2022-11-24T16:48:10.404Z,3.97
2022-11-24T16:51:13.649Z,3.95
2022-11-24T16:54:16.736Z,3.91
2022-11-24T16:57:19.426Z,3.88
2022-11-24T17:00:22.661Z,3.85
2022-11-24T17:03:25.536Z,3.81
2022-11-24T17:06:28.938Z,3.80
2022-11-24T17:09:33.866Z,4.44
2022-11-24T17:12:41.009Z,4.20
2022-11-24T17:15:48.398Z,4.08
2022-11-24T17:18:54.501Z,3.94
2022-11-24T17:21:57.241Z,3.84
2022-11-24T17:25:00.084Z,3.78
2022-11-24T17:28:02.716Z,3.74
2022-11-24T17:31:07.287Z,3.69
2022-11-24T17:34:10.810Z,3.65
2022-11-24T17:37:13.807Z,3.61
2022-11-24T17:40:34.369Z,3.58
2022-11-24T17:43:37.575Z,3.56
2022-11-24T17:46:40.758Z,3.49
2022-11-24T17:49:43.891Z,3.47
2022-11-24T17:52:47.090Z,3.45
2022-11-24T17:55:50.080Z,3.44
2022-11-24T17:59:00.179Z,3.42
2022-11-24T18:02:03.358Z,3.41
2022-11-24T18:05:06.883Z,3.41
2022-11-24T18:08:09.601Z,3.37
2022-11-24T18:11:23.627Z,3.35
2022-11-24T18:14:28.605Z,4.03
2022-11-24T18:17:31.583Z,3.74
2022-11-24T18:20:34.444Z,3.61
2022-11-24T18:23:37.888Z,3.49
2022-11-24T18:26:42.217Z,3.43
2022-11-24T18:29:46.396Z,3.41
2022-11-24T18:32:49.193Z,3.37
2022-11-24T18:36:00.058Z,3.37
2022-11-24T18:39:07.975Z,3.34
2022-11-24T18:42:11.240Z,3.33
2022-11-24T18:45:14.043Z,3.22
2022-11-24T18:48:17.271Z,3.11
2022-11-24T18:51:19.733Z,3.18
2022-11-24T18:54:22.509Z,3.15
2022-11-24T18:57:25.278Z,3.14
2022-11-24T19:00:28.763Z,3.13
2022-11-24T19:03:31.481Z,3.10
2022-11-24T19:06:36.879Z,3.08
2022-11-24T19:09:39.727Z,3.04
2022-11-24T19:12:44.841Z,3.01
2022-11-24T19:15:48.560Z,2.98
2022-11-24T19:18:54.359Z,2.95
2022-11-24T19:21:57.128Z,2.90
2022-11-24T19:25:00.339Z,2.88
2022-11-24T19:28:03.140Z,4.47
2022-11-24T19:31:08.841Z,3.87
2022-11-24T19:34:11.812Z,3.52
2022-11-24T19:37:15.091Z,4.91
2022-11-24T19:40:18.578Z,4.69
2022-11-24T19:43:21.811Z,4.14
2022-11-24T19:46:27.216Z,3.72
2022-11-24T19:49:32.454Z,3.44
2022-11-24T19:52:35.598Z,3.19
2022-11-24T19:55:38.708Z,3.06
2022-11-24T19:58:42.225Z,2.96
2022-11-24T20:01:45.267Z,2.87
2022-11-24T20:04:48.462Z,2.79
2022-11-24T20:07:51.445Z,2.69
2022-11-24T20:10:55.034Z,2.63
2022-11-24T20:13:57.876Z,2.58
2022-11-24T20:17:01.097Z,2.54
2022-11-24T20:20:04.504Z,2.51
2022-11-24T20:23:07.817Z,2.47
2022-11-24T20:26:16.328Z,2.43
2022-11-24T20:29:20.281Z,2.37
2022-11-24T20:32:23.166Z,2.35
2022-11-24T20:35:26.290Z,2.31
2022-11-24T20:38:29.751Z,2.27
2022-11-24T20:41:34.752Z,2.26
2022-11-24T20:44:37.751Z,2.19
2022-11-24T20:47:40.957Z,2.22
2022-11-24T20:50:48.302Z,2.21
2022-11-24T20:53:56.858Z,2.21
2022-11-24T20:56:59.738Z,2.18
2022-11-24T21:00:03.219Z,2.15
2022-11-24T21:03:07.135Z,2.18
2022-11-24T21:06:10.976Z,2.16
2022-11-24T21:09:13.735Z,2.16
2022-11-24T21:12:17.417Z,2.08
2022-11-24T21:15:20.014Z,2.06
2022-11-24T21:18:23.829Z,2.04
2022-11-24T21:21:33.381Z,2.03
2022-11-24T21:24:36.674Z,2.02
2022-11-24T21:27:39.634Z,1.99
2022-11-24T21:30:42.649Z,1.97
2022-11-24T21:33:50.349Z,1.97
2022-11-24T21:36:53.218Z,1.96
2022-11-24T21:39:55.669Z,1.91
2022-11-24T21:42:59.569Z,1.88
2022-11-24T21:46:03.768Z,1.89
2022-11-24T21:49:06.736Z,1.86
2022-11-24T21:52:09.305Z,1.85
2022-11-24T21:55:12.278Z,1.85
2022-11-24T21:58:15.063Z,1.87
2022-11-24T22:01:19.613Z,1.90
2022-11-24T22:04:22.751Z,1.86
2022-11-24T22:07:25.331Z,1.85
2022-11-24T22:10:29.616Z,1.83
2022-11-24T22:13:32.228Z,1.84
2022-11-24T22:16:35.651Z,1.83
2022-11-24T22:19:38.234Z,1.83
2022-11-24T22:22:41.174Z,1.83
2022-11-24T22:25:43.781Z,1.86
2022-11-24T22:28:49.943Z,1.89
2022-11-24T22:31:54.327Z,1.88
2022-11-24T22:34:57.336Z,2.02
2022-11-24T22:37:59.952Z,2.10
2022-11-24T22:41:25.224Z,2.17
2022-11-24T22:44:28.612Z,2.26
2022-11-24T22:47:31.517Z,2.30
2022-11-24T22:50:36.824Z,2.26
2022-11-24T22:53:40.373Z,2.33
2022-11-24T22:56:43.123Z,2.33
2022-11-24T22:59:46.372Z,2.33
2022-11-24T23:02:48.986Z,2.30
2022-11-24T23:05:51.911Z,2.30
2022-11-24T23:08:55.175Z,2.27
2022-11-24T23:11:58.017Z,2.24
2022-11-24T23:15:00.668Z,2.23
2022-11-24T23:18:03.555Z,2.23
2022-11-24T23:21:11.189Z,2.22
2022-11-24T23:24:14.037Z,2.20
2022-11-24T23:27:16.515Z,2.20
2022-11-24T23:30:19.764Z,2.19
2022-11-24T23:33:22.278Z,2.16
2022-11-24T23:36:25.644Z,2.17
2022-11-24T23:39:28.630Z,2.17
2022-11-24T23:42:31.522Z,2.17
2022-11-24T23:45:34.008Z,2.19
2022-11-24T23:48:37.799Z,2.15
2022-11-24T23:51:42.096Z,2.21
2022-11-24T23:54:45.431Z,2.22
2022-11-24T23:57:47.957Z,2.20
